»·PEaware :: N20957 KPRC-KSEZ

N20957 :: KPRC-KSEZ

FLIGHT INFORMATION

Flight Status: Arrived
Operator: Privately registered:
United States
More flights under this callsign
Pilot: Charles P. (32095)
Aircraft: CESSNA 172 SKYHAWK
(C172)
More flights by this aircraft type
Origin: KPRC Love
United States
Destination: KSEZ Sedona
United States
More flights between these airports :: More routes between these airports
Route:
File this flight plan on PilotEdge
Remarks: N / A
Altitude:
(Current/Filed)
7,500ft
Speed:
(Current/Filed)
124kts
Departed: 24-Aug-21 04:27 PM
Arrived: 24-Aug-21 04:49 PM
Distance/Time
Traveled:
33nm/0:22
Distance/Time
To Go:
Arrived

Flight Plot

Page will automatically refresh every two minutes.

Flight plan parsing failed; only flown route is shown


Map Options




Map Legend


Flown Route
Filed Route
Departure Airport
Arrival Airport
Navaid (VOR, NDB)
Fix

Horizontal Profiles

Position Reports

Time Latitude Longitude Heading Altitude Ground
Speed
24-Aug-21 15:45 34.646919 -112.423419 128 5024ft 0kts
24-Aug-21 15:46 34.646919 -112.423419 128 5024ft 0kts
24-Aug-21 15:48 34.646919 -112.423419 128 5024ft 0kts
24-Aug-21 15:49 34.646919 -112.423419 128 5024ft 0kts
24-Aug-21 15:50 34.646919 -112.423419 128 5024ft 0kts
24-Aug-21 15:51 34.646919 -112.423419 128 5024ft 0kts
24-Aug-21 15:52 34.646919 -112.423419 128 5024ft 0kts
24-Aug-21 15:53 34.646919 -112.423419 128 5024ft 0kts
24-Aug-21 15:54 34.646919 -112.423419 128 5024ft 0kts
24-Aug-21 15:55 34.646919 -112.423419 128 5024ft 0kts
24-Aug-21 15:56 34.646919 -112.423419 128 5024ft 0kts
24-Aug-21 15:57 34.646919 -112.423419 128 5024ft 0kts
24-Aug-21 15:58 34.646919 -112.423419 128 5024ft 0kts
24-Aug-21 15:59 34.646919 -112.423419 128 5024ft 0kts
24-Aug-21 16:00 34.646919 -112.423419 128 5024ft 0kts
24-Aug-21 16:01 34.646919 -112.423419 128 5024ft 0kts
24-Aug-21 16:02 34.646919 -112.423419 128 5024ft 0kts
24-Aug-21 16:03 34.646919 -112.423419 128 5024ft 0kts
24-Aug-21 16:04 34.646919 -112.423419 128 5024ft 0kts
24-Aug-21 16:05 34.646919 -112.423419 128 5024ft 0kts
24-Aug-21 16:06 34.646919 -112.423419 128 5024ft 0kts
24-Aug-21 16:07 34.646919 -112.423419 128 5024ft 0kts
24-Aug-21 16:08 34.646919 -112.423419 128 5024ft 0kts
24-Aug-21 16:09 34.646919 -112.423419 128 5024ft 0kts
24-Aug-21 16:10 34.646919 -112.423419 128 5024ft 0kts
24-Aug-21 16:11 34.646919 -112.423419 128 5024ft 0kts
24-Aug-21 16:12 34.646919 -112.423419 128 5024ft 0kts
24-Aug-21 16:13 34.646919 -112.423419 128 5024ft 0kts
24-Aug-21 16:14 34.646919 -112.423419 128 5024ft 0kts
24-Aug-21 16:15 34.646919 -112.423419 128 5024ft 0kts
24-Aug-21 16:16 34.646919 -112.423419 128 5024ft 0kts
24-Aug-21 16:16 34.646919 -112.423419 128 5024ft 0kts
24-Aug-21 16:17 34.646919 -112.423419 128 5024ft 0kts
24-Aug-21 16:19 34.647385 -112.422748 137 5028ft 4kts
24-Aug-21 16:20 34.646063 -112.421235 134 5036ft 7kts
24-Aug-21 16:21 34.644135 -112.419017 136 5045ft 9kts
24-Aug-21 16:21 34.643710 -112.418338 60 5048ft 0kts
24-Aug-21 16:22 34.643710 -112.418338 60 5048ft 0kts
24-Aug-21 16:23 34.643710 -112.418338 60 5048ft 0kts
24-Aug-21 16:25 34.643710 -112.418338 60 5048ft 0kts
24-Aug-21 16:26 34.644049 -112.418062 346 5048ft 6kts
24-Aug-21 16:26 34.653356 -112.428460 307 5153ft 83kts
24-Aug-21 16:27 34.670873 -112.445288 19 5789ft 73kts
24-Aug-21 16:28 34.686977 -112.434593 23 6007ft 67kts
24-Aug-21 16:29 34.699212 -112.417806 69 6292ft 65kts
24-Aug-21 16:30 34.709034 -112.389917 98 6299ft 116kts
24-Aug-21 16:31 34.702765 -112.349320 105 6436ft 116kts
24-Aug-21 16:32 34.696094 -112.308937 104 6523ft 127kts
24-Aug-21 16:33 34.696326 -112.268144 72 6898ft 116kts
24-Aug-21 16:34 34.707967 -112.232729 71 7395ft 109kts
24-Aug-21 16:35 34.718797 -112.198771 71 7909ft 107kts
24-Aug-21 16:36 34.729352 -112.165586 70 8423ft 104kts
24-Aug-21 16:37 34.740082 -112.131579 70 8648ft 114kts
24-Aug-21 16:38 34.753593 -112.089169 70 8038ft 150kts
24-Aug-21 16:39 34.768912 -112.040961 70 7225ft 153kts
24-Aug-21 16:40 34.784159 -111.992815 69 6619ft 146kts
24-Aug-21 16:41 34.798999 -111.945846 69 5963ft 152kts
24-Aug-21 16:42 34.813996 -111.898249 69 5183ft 146kts
24-Aug-21 16:43 34.827396 -111.855817 69 5058ft 126kts
24-Aug-21 16:44 34.846164 -111.823169 33 5188ft 117kts
24-Aug-21 16:45 34.869496 -111.802708 34 5576ft 89kts
24-Aug-21 16:46 34.875553 -111.777373 119 5528ft 93kts
24-Aug-21 16:47 34.858745 -111.775851 224 5058ft 89kts
24-Aug-21 16:48 34.848741 -111.788478 287 4783ft 5kts
24-Aug-21 16:49 34.849020 -111.788864 323 4783ft 4kts
24-Aug-21 16:50 34.849469 -111.788940 130 4786ft 0kts
24-Aug-21 16:51 34.849469 -111.788940 130 4786ft 0kts
24-Aug-21 16:52 34.849469 -111.788940 130 4786ft 0kts

Navigation Log

Ident Type
Flight plan parsing failed, navigation log unavailable